createdAt,value
2019-02-19T00:02:31.835Z,5.35
2019-02-19T00:05:12.290Z,4.60
2019-02-19T00:07:52.765Z,4.78
2019-02-19T00:10:33.060Z,4.90
2019-02-19T00:13:13.923Z,4.72
2019-02-19T00:15:53.513Z,4.80
2019-02-19T00:18:33.106Z,4.25
2019-02-19T00:21:14.593Z,5.03
2019-02-19T00:23:54.970Z,3.77
2019-02-19T00:26:34.574Z,4.78
2019-02-19T00:29:15.262Z,4.53
2019-02-19T00:31:56.557Z,4.37
2019-02-19T00:34:35.987Z,4.78
2019-02-19T00:37:15.739Z,4.35
2019-02-19T00:39:55.198Z,4.35
2019-02-19T00:42:36.728Z,3.70
2019-02-19T00:45:16.987Z,3.77
2019-02-19T00:47:58.618Z,3.37
2019-02-19T00:50:38.243Z,3.10
2019-02-19T00:53:19.616Z,3.70
2019-02-19T00:56:02.480Z,3.62
2019-02-19T00:58:42.116Z,3.47
2019-02-19T01:01:21.938Z,3.45
2019-02-19T01:04:01.097Z,3.30
2019-02-19T01:06:42.324Z,3.00
2019-02-19T01:09:21.972Z,3.20
2019-02-19T01:12:01.720Z,4.33
2019-02-19T01:14:41.381Z,3.52
2019-02-19T01:17:21.634Z,4.10
2019-02-19T01:20:01.149Z,3.72
2019-02-19T01:22:42.359Z,4.15
2019-02-19T01:25:24.923Z,3.58
2019-02-19T01:28:04.858Z,3.80
2019-02-19T01:30:44.557Z,4.33
2019-02-19T01:33:26.336Z,4.12
2019-02-19T01:36:05.841Z,4.08
2019-02-19T01:38:46.038Z,3.62
2019-02-19T01:41:25.559Z,3.58
2019-02-19T01:44:09.765Z,3.37
2019-02-19T01:46:50.660Z,3.05
2019-02-19T01:49:30.177Z,3.50
2019-02-19T01:52:09.639Z,3.40
2019-02-19T01:54:49.456Z,3.83
2019-02-19T01:57:32.624Z,3.90
2019-02-19T02:00:12.834Z,3.70
2019-02-19T02:02:53.194Z,4.08
2019-02-19T02:05:36.269Z,4.00
2019-02-19T02:08:17.283Z,3.40
2019-02-19T02:11:00.176Z,4.08
2019-02-19T02:13:47.091Z,3.02
2019-02-19T02:16:27.518Z,3.27
2019-02-19T02:19:07.435Z,3.50
2019-02-19T02:21:50.847Z,4.87
2019-02-19T02:24:31.430Z,4.05
2019-02-19T02:27:14.124Z,4.90
2019-02-19T02:29:54.054Z,3.92
2019-02-19T02:32:39.728Z,4.00
2019-02-19T02:35:20.849Z,3.83
2019-02-19T02:40:40.290Z,3.83
2019-02-19T02:43:27.726Z,4.08
2019-02-19T02:46:08.368Z,3.60
2019-02-19T02:48:49.670Z,4.20
2019-02-19T02:51:30.074Z,4.40
2019-02-19T02:54:11.962Z,4.28
2019-02-19T02:56:51.562Z,5.05
2019-02-19T02:59:35.133Z,4.00
2019-02-19T03:02:20.270Z,3.72
2019-02-19T03:05:00.201Z,3.75
2019-02-19T03:08:05.653Z,4.53
2019-02-19T03:10:48.842Z,4.10
2019-02-19T03:13:31.303Z,4.53
2019-02-19T03:16:11.646Z,3.77
2019-02-19T03:18:51.085Z,4.22
2019-02-19T03:21:38.592Z,3.98
2019-02-19T03:24:18.879Z,3.92
2019-02-19T03:27:00.092Z,3.75
2019-02-19T03:29:40.692Z,3.87
2019-02-19T03:32:23.254Z,3.62
2019-02-19T03:35:05.361Z,3.87
2019-02-19T03:37:49.214Z,3.65
2019-02-19T03:40:30.491Z,4.25
2019-02-19T03:43:11.284Z,3.60
2019-02-19T03:45:53.010Z,3.65
2019-02-19T03:51:18.484Z,4.08
2019-02-19T03:54:00.963Z,4.58
2019-02-19T03:56:42.742Z,3.77
2019-02-19T03:59:30.110Z,3.77
2019-02-19T04:02:10.434Z,4.35
2019-02-19T04:04:55.089Z,3.92
2019-02-19T04:07:46.752Z,4.50
2019-02-19T04:10:28.839Z,5.35
2019-02-19T04:15:48.187Z,4.90
2019-02-19T04:18:33.105Z,3.98
2019-02-19T04:21:16.148Z,4.55
2019-02-19T04:23:57.831Z,4.10
2019-02-19T04:26:37.199Z,3.87
2019-02-19T04:29:17.158Z,4.40
2019-02-19T04:31:59.824Z,4.10
2019-02-19T04:34:39.600Z,4.25
2019-02-19T04:37:19.497Z,4.40
2019-02-19T04:40:10.010Z,4.33
2019-02-19T04:42:51.035Z,4.22
2019-02-19T04:45:38.091Z,4.10
2019-02-19T04:48:23.014Z,4.00
2019-02-19T04:51:04.777Z,4.53
2019-02-19T04:53:57.629Z,4.33
2019-02-19T04:56:40.541Z,3.92
2019-02-19T04:59:21.807Z,4.03
2019-02-19T05:02:10.748Z,3.83
2019-02-19T05:04:56.512Z,3.90
2019-02-19T05:07:40.623Z,4.60
2019-02-19T05:10:25.537Z,3.98
2019-02-19T05:13:06.637Z,6.00
2019-02-19T05:15:47.299Z,3.90
2019-02-19T05:18:27.731Z,4.12
2019-02-19T05:21:07.523Z,4.75
2019-02-19T05:23:52.186Z,3.93
2019-02-19T05:26:34.611Z,3.67
2019-02-19T05:29:16.824Z,3.58
2019-02-19T05:31:56.875Z,4.37
2019-02-19T05:34:45.310Z,4.53
2019-02-19T05:37:25.232Z,3.98
2019-02-19T05:40:06.338Z,4.10
2019-02-19T05:42:48.936Z,3.80
2019-02-19T05:45:30.627Z,4.08
2019-02-19T05:48:11.495Z,3.40
2019-02-19T05:50:51.302Z,4.10
2019-02-19T05:53:33.533Z,3.67
2019-02-19T05:56:16.796Z,3.85
2019-02-19T05:58:57.633Z,3.25
2019-02-19T06:01:37.504Z,3.60
2019-02-19T06:04:17.282Z,3.67
2019-02-19T06:07:02.390Z,3.80
2019-02-19T06:09:42.316Z,3.27
2019-02-19T06:12:22.499Z,3.87
2019-02-19T06:15:03.003Z,3.37
2019-02-19T06:17:48.083Z,3.83
2019-02-19T06:20:31.581Z,3.90
2019-02-19T06:23:12.560Z,3.70
2019-02-19T06:25:53.369Z,3.67
2019-02-19T06:31:12.476Z,3.30
2019-02-19T06:33:54.515Z,3.70
2019-02-19T06:36:34.113Z,3.47
2019-02-19T06:39:15.714Z,3.80
2019-02-19T06:41:56.510Z,4.25
2019-02-19T06:44:39.871Z,3.72
2019-02-19T06:47:22.451Z,3.90
2019-02-19T06:50:03.915Z,3.67
2019-02-19T06:52:44.745Z,3.50
2019-02-19T06:55:25.864Z,3.92
2019-02-19T06:58:05.039Z,3.85
2019-02-19T07:00:51.045Z,3.80
2019-02-19T07:03:51.783Z,4.20
2019-02-19T07:06:34.005Z,4.15
2019-02-19T07:09:17.845Z,4.05
2019-02-19T07:12:11.614Z,4.20
2019-02-19T07:14:52.176Z,4.50
2019-02-19T07:17:32.513Z,4.05
2019-02-19T07:20:15.210Z,4.40
2019-02-19T07:22:58.679Z,4.37
2019-02-19T07:25:52.860Z,4.05
2019-02-19T07:28:33.116Z,4.35
2019-02-19T07:31:15.607Z,4.37
2019-02-19T07:33:55.488Z,4.15
2019-02-19T07:36:40.035Z,4.67
2019-02-19T07:39:23.338Z,4.85
2019-02-19T07:42:04.344Z,4.65
2019-02-19T07:44:45.675Z,4.17
2019-02-19T07:47:27.451Z,4.72
2019-02-19T07:52:54.458Z,4.65
2019-02-19T07:55:35.265Z,4.70
2019-02-19T07:58:21.089Z,5.00
2019-02-19T08:01:01.551Z,4.45
2019-02-19T08:03:44.992Z,4.22
2019-02-19T08:06:26.047Z,4.55
2019-02-19T08:09:07.187Z,4.47
2019-02-19T08:11:51.066Z,5.53
2019-02-19T08:14:31.779Z,5.10
2019-02-19T08:17:22.510Z,5.12
2019-02-19T08:20:03.978Z,5.47
2019-02-19T08:22:45.821Z,4.47
2019-02-19T08:25:33.758Z,4.87
2019-02-19T08:28:13.387Z,4.70
2019-02-19T08:30:52.966Z,4.72
2019-02-19T08:33:34.514Z,5.20
2019-02-19T08:36:17.080Z,4.35
2019-02-19T08:38:58.130Z,5.62
2019-02-19T08:41:37.994Z,5.47
2019-02-19T08:44:20.265Z,5.00
2019-02-19T08:49:41.270Z,4.70
2019-02-19T08:52:23.004Z,4.50
2019-02-19T08:55:02.655Z,5.12
2019-02-19T08:57:43.620Z,5.47
2019-02-19T09:00:24.580Z,4.80
2019-02-19T09:03:04.151Z,5.00
2019-02-19T09:05:44.082Z,5.10
2019-02-19T09:08:28.605Z,4.30
2019-02-19T09:11:07.849Z,5.20
2019-02-19T09:13:49.599Z,5.10
2019-02-19T09:16:28.691Z,5.20
2019-02-19T09:19:11.176Z,4.97
2019-02-19T09:21:51.012Z,5.78
2019-02-19T09:24:30.139Z,5.47
2019-02-19T09:27:31.913Z,6.22
2019-02-19T09:30:15.887Z,4.90
2019-02-19T09:32:54.703Z,5.08
2019-02-19T09:35:34.709Z,5.50
2019-02-19T09:38:14.970Z,5.47
2019-02-19T09:40:54.147Z,5.50
2019-02-19T09:43:35.426Z,5.45
2019-02-19T09:46:14.653Z,4.75
2019-02-19T09:48:54.695Z,4.83
2019-02-19T09:51:33.512Z,4.90
2019-02-19T09:54:14.744Z,5.10
2019-02-19T09:56:53.660Z,4.53
2019-02-19T09:59:35.393Z,5.08
2019-02-19T10:02:14.552Z,4.37
2019-02-19T10:04:55.236Z,6.45
2019-02-19T10:07:37.926Z,5.40
2019-02-19T10:10:21.526Z,6.00
2019-02-19T10:13:01.449Z,4.78
2019-02-19T10:15:43.110Z,4.55
2019-02-19T10:18:22.187Z,5.25
2019-02-19T10:21:02.379Z,5.15
2019-02-19T10:23:43.043Z,5.10
2019-02-19T10:26:22.047Z,4.58
2019-02-19T10:29:01.205Z,4.30
2019-02-19T10:31:43.358Z,5.22
2019-02-19T10:34:24.183Z,4.72
2019-02-19T10:37:04.552Z,5.17
2019-02-19T10:39:44.387Z,4.45
2019-02-19T10:42:23.760Z,4.35
2019-02-19T10:45:02.898Z,4.87
2019-02-19T10:47:43.994Z,4.78
2019-02-19T10:50:23.164Z,4.40
2019-02-19T10:53:03.402Z,4.53
2019-02-19T10:55:42.460Z,4.42
2019-02-19T10:58:23.827Z,4.75
2019-02-19T11:01:02.988Z,4.25
2019-02-19T11:03:42.278Z,4.72
2019-02-19T11:06:22.109Z,4.30
2019-02-19T11:09:02.462Z,4.65
2019-02-19T11:11:42.959Z,4.57
2019-02-19T11:14:23.522Z,4.08
2019-02-19T11:17:03.043Z,4.30
2019-02-19T11:19:42.145Z,4.30
2019-02-19T11:22:21.466Z,6.58
2019-02-19T11:25:01.515Z,4.45
2019-02-19T11:27:43.221Z,4.70
2019-02-19T11:30:22.856Z,4.92
2019-02-19T11:33:03.380Z,5.60
2019-02-19T11:35:45.676Z,5.03
2019-02-19T11:41:00.809Z,5.05
2019-02-19T11:43:39.741Z,5.12
2019-02-19T11:46:20.436Z,5.50
2019-02-19T11:49:00.620Z,5.33
2019-02-19T11:51:40.505Z,5.08
2019-02-19T11:54:19.749Z,5.12
2019-02-19T11:56:58.859Z,5.62
2019-02-19T11:59:38.929Z,5.62
2019-02-19T12:02:21.681Z,5.03
2019-02-19T12:05:00.895Z,4.67
2019-02-19T12:07:40.456Z,4.55
2019-02-19T12:10:19.490Z,5.08
2019-02-19T12:12:58.662Z,5.20
2019-02-19T12:15:38.498Z,5.08
2019-02-19T12:18:17.670Z,5.30
2019-02-19T12:20:58.838Z,5.50
2019-02-19T12:23:38.356Z,5.35
2019-02-19T12:26:22.016Z,5.08
2019-02-19T12:29:02.823Z,5.67
2019-02-19T12:31:43.144Z,5.45
2019-02-19T12:34:22.551Z,4.92
2019-02-19T12:37:02.780Z,5.10
2019-02-19T12:39:42.756Z,5.60
2019-02-19T12:42:23.975Z,5.17
2019-02-19T12:45:04.435Z,4.85
2019-02-19T12:47:45.264Z,5.12
2019-02-19T12:50:24.409Z,5.12
2019-02-19T12:53:03.618Z,5.75
2019-02-19T12:55:43.709Z,4.78
2019-02-19T12:58:45.880Z,5.20
2019-02-19T13:02:01.893Z,5.15
2019-02-19T13:04:42.567Z,5.35
2019-02-19T13:07:24.963Z,5.42
2019-02-19T13:10:07.476Z,5.20
2019-02-19T13:13:02.344Z,4.67
2019-02-19T13:15:58.905Z,4.90
2019-02-19T13:19:03.272Z,5.62
2019-02-19T13:21:38.701Z,5.08
2019-02-19T13:24:52.608Z,5.62
2019-02-19T13:27:49.528Z,5.35
2019-02-19T13:30:45.723Z,5.70
2019-02-19T13:33:24.793Z,5.00
2019-02-19T13:36:24.310Z,5.12
2019-02-19T13:39:37.278Z,5.95
2019-02-19T13:43:07.399Z,5.87
2019-02-19T13:46:12.036Z,5.05
2019-02-19T13:49:40.964Z,5.37
2019-02-19T13:52:53.255Z,6.50
2019-02-19T13:55:58.511Z,5.92
2019-02-19T13:58:56.495Z,5.28
2019-02-19T14:01:54.764Z,5.10
2019-02-19T14:04:50.691Z,7.87
2019-02-19T14:07:47.954Z,6.95
2019-02-19T14:10:30.078Z,8.88
2019-02-19T14:13:09.549Z,19.77
2019-02-19T14:16:22.897Z,5.42
2019-02-19T14:19:25.985Z,5.30
2019-02-19T14:22:49.968Z,5.60
2019-02-19T14:26:20.103Z,5.30
2019-02-19T14:29:35.431Z,5.55
2019-02-19T14:33:05.082Z,5.50
2019-02-19T14:36:04.639Z,5.60
2019-02-19T14:39:02.676Z,5.50
2019-02-19T14:42:01.992Z,5.10
2019-02-19T14:44:59.040Z,5.70
2019-02-19T14:48:13.099Z,5.20
2019-02-19T14:51:22.438Z,5.37
2019-02-19T14:54:24.291Z,5.60
2019-02-19T14:57:20.624Z,5.85
2019-02-19T15:00:45.942Z,5.20
2019-02-19T15:04:01.215Z,5.25
2019-02-19T15:07:14.041Z,5.87
2019-02-19T15:10:35.460Z,5.53
2019-02-19T15:13:44.119Z,6.10
2019-02-19T15:17:00.589Z,5.70
2019-02-19T15:20:14.036Z,5.53
2019-02-19T15:23:30.544Z,5.87
2019-02-19T15:26:43.971Z,5.97
2019-02-19T15:29:42.866Z,5.87
2019-02-19T15:32:41.049Z,5.80
2019-02-19T15:35:55.632Z,5.60
2019-02-19T15:39:35.895Z,6.17
2019-02-19T15:42:56.499Z,5.75
2019-02-19T15:46:27.115Z,6.78
2019-02-19T15:49:47.347Z,6.28
2019-02-19T15:52:50.343Z,7.10
2019-02-19T15:55:55.366Z,7.58
2019-02-19T15:59:01.719Z,7.37
2019-02-19T16:01:54.540Z,8.08
2019-02-19T16:04:59.218Z,7.28
2019-02-19T16:07:50.940Z,6.33
2019-02-19T16:10:43.846Z,6.67
2019-02-19T16:13:32.177Z,7.22
2019-02-19T16:16:34.233Z,8.43
2019-02-19T16:19:46.974Z,7.33
2019-02-19T16:23:00.914Z,7.70
2019-02-19T16:25:52.042Z,6.83
2019-02-19T16:31:35.009Z,8.28
2019-02-19T16:34:45.576Z,7.65
2019-02-19T16:37:47.222Z,7.80
2019-02-19T16:40:42.772Z,7.15
2019-02-19T16:43:38.187Z,6.05
2019-02-19T16:46:41.568Z,6.92
2019-02-19T16:49:38.139Z,7.05
2019-02-19T16:52:29.099Z,7.67
2019-02-19T16:55:36.649Z,7.15
2019-02-19T16:58:30.681Z,7.20
2019-02-19T17:01:27.973Z,5.53
2019-02-19T17:04:23.113Z,5.10
2019-02-19T17:07:13.661Z,5.55
2019-02-19T17:10:22.893Z,5.60
2019-02-19T17:13:19.867Z,5.62
2019-02-19T17:16:37.150Z,6.00
2019-02-19T17:19:43.643Z,5.95
2019-02-19T17:22:52.675Z,5.92
2019-02-19T17:25:52.905Z,5.60
2019-02-19T17:28:48.751Z,5.62
2019-02-19T17:31:54.887Z,5.67
2019-02-19T17:34:55.218Z,5.42
2019-02-19T17:38:14.261Z,5.95
2019-02-19T17:41:02.941Z,5.72
2019-02-19T17:44:00.087Z,5.90
2019-02-19T17:47:06.082Z,6.05
2019-02-19T17:50:12.224Z,5.92
2019-02-19T17:53:10.806Z,6.10
2019-02-19T17:56:10.678Z,6.17
2019-02-19T17:59:08.084Z,6.40
2019-02-19T18:02:08.843Z,7.12
2019-02-19T18:05:05.466Z,6.80
2019-02-19T18:08:03.383Z,7.12
2019-02-19T18:11:05.299Z,6.70
2019-02-19T18:14:20.650Z,6.83
2019-02-19T18:17:14.891Z,7.65
2019-02-19T18:20:15.894Z,7.75
2019-02-19T18:22:55.853Z,7.33
2019-02-19T18:25:40.286Z,6.97
2019-02-19T18:28:24.458Z,7.58
2019-02-19T18:31:04.526Z,6.95
2019-02-19T18:33:52.532Z,6.60
2019-02-19T18:36:32.784Z,6.45
2019-02-19T18:39:13.323Z,5.97
2019-02-19T18:42:06.291Z,6.70
2019-02-19T18:44:46.599Z,5.83
2019-02-19T18:47:30.994Z,6.10
2019-02-19T18:50:26.288Z,6.20
2019-02-19T18:53:06.527Z,5.72
2019-02-19T18:55:45.261Z,5.90
2019-02-19T18:58:29.350Z,5.75
2019-02-19T19:01:12.693Z,6.17
2019-02-19T19:03:51.815Z,6.30
2019-02-19T19:06:30.916Z,6.22
2019-02-19T19:09:10.907Z,5.25
2019-02-19T19:11:51.139Z,6.58
2019-02-19T19:14:31.645Z,6.50
2019-02-19T19:17:10.770Z,6.12
2019-02-19T19:19:49.462Z,6.20
2019-02-19T19:22:28.323Z,5.80
2019-02-19T19:25:08.602Z,6.10
2019-02-19T21:28:16.138Z,5.72
2019-02-19T21:30:55.685Z,6.20
2019-02-19T21:33:35.296Z,6.80
2019-02-19T21:36:14.564Z,7.00
2019-02-19T21:38:54.214Z,7.17
2019-02-19T21:41:33.556Z,6.47
2019-02-19T21:44:12.551Z,7.22
2019-02-19T21:46:51.705Z,15.30
2019-02-19T21:49:33.381Z,6.83
2019-02-19T21:52:12.453Z,6.58
2019-02-19T21:54:51.587Z,6.70
2019-02-19T21:57:31.527Z,6.92
2019-02-19T22:00:13.479Z,6.85
2019-02-19T22:02:55.165Z,6.55
2019-02-19T22:05:34.382Z,6.30
2019-02-19T22:08:13.170Z,7.03
2019-02-19T22:10:53.901Z,7.08
2019-02-19T22:13:32.925Z,7.58
2019-02-19T22:16:11.779Z,7.10
2019-02-19T22:18:50.941Z,7.28
2019-02-19T22:21:35.736Z,7.47
2019-02-19T22:24:14.893Z,17.07
2019-02-19T22:26:54.152Z,14.07
2019-02-19T22:29:33.304Z,11.20
2019-02-19T22:32:12.822Z,12.35
2019-02-19T22:34:53.530Z,8.70
2019-02-19T22:37:32.566Z,10.55
2019-02-19T22:40:12.613Z,9.20
2019-02-19T22:42:52.025Z,9.55
2019-02-19T22:45:30.876Z,8.63
2019-02-19T22:48:09.889Z,8.18
2019-02-19T22:50:52.081Z,8.03
2019-02-19T22:53:55.788Z,7.35
2019-02-19T22:56:40.268Z,7.72
2019-02-19T22:59:19.499Z,7.83
2019-02-19T23:02:15.471Z,7.80
2019-02-19T23:04:54.783Z,7.72
2019-02-19T23:07:34.918Z,7.70
2019-02-19T23:10:13.970Z,7.87
2019-02-19T23:12:53.002Z,7.55
2019-02-19T23:15:32.159Z,7.45
2019-02-19T23:18:11.513Z,7.47
2019-02-19T23:20:50.645Z,8.60
2019-02-19T23:23:29.886Z,8.35
2019-02-19T23:26:09.135Z,8.50
2019-02-19T23:28:48.951Z,9.85
2019-02-19T23:31:31.674Z,9.48
2019-02-19T23:34:11.456Z,8.95
2019-02-19T23:36:57.377Z,10.28
2019-02-19T23:39:43.579Z,9.05
2019-02-19T23:42:19.126Z,8.73
2019-02-19T23:44:58.011Z,7.87
2019-02-19T23:47:37.116Z,8.18
2019-02-19T23:50:16.113Z,8.65
2019-02-19T23:52:55.024Z,9.60
2019-02-19T23:55:34.765Z,9.40
2019-02-19T23:58:13.677Z,9.35
